Lone, Kentucky
Current Conditions -  °F | °C
As of 11:53 PM on Saturday 25 Oct 2014 (Local Time) from KJKL Reporting Station
Clear Clear  
Wind Chill: 59°   Ceiling: Unl
Heat Index: 59°   Visibility: 10mi
Dew Point: 54°   Wind: 3mph
Humidity: 83%   Direction: NA
Pressure: 29.97"   Gusts: NA
Location:  37.53°N, 83.6°W
Report Text: KJKL 260353Z AUTO VRB03KT 10SM CLR 15/12 A2997 RMK AO2 SLP143 T01500122
Loading
Personal Weather Stations






























Interactive Weather Map
Tropical Storm Tracking
New forecast layout! Learn more

10-Day Weather Forecast

Advertisements
Track Severe Weather on mobile